KFKL/FKL METAR and TAF weather

Enter ICAO airport designator
Station Type Date Time Source
KFKL METAR 2021/07/25 09:56 UTC NOAA

KFKL 250956Z AUTO 24004KT 10SM OVC016 21/18 A2991 RMK AO2 SLP121 T02110183


Station Type Date Time Source
KFKL Decoded METAR 2021/07/25 09:56 UTC NOAA

Franklin, Venango Regional Airport, PA, United States (KFKL) 41-23N 079-52W
Jul 25, 2021 - 05:56 AM EDT / 2021.07.25 0956 UTC
Wind: from the WSW (240 degrees) at 5 MPH (4 KT):0
Visibility: 10 mile(s):0
Sky conditions: overcast
Temperature: 70.0 F (21.1 C)
Dew Point: 64.9 F (18.3 C)
Relative Humidity: 84%
Pressure (altimeter): 29.91 in. Hg (1012 hPa)
ob: KFKL 250956Z AUTO 24004KT 10SM OVC016 21/18 A2991 RMK AO2 SLP121 T02110183
cycle: 10

Station Type Date Time Source
KFKL TAF 2021/07/27 18:24 UTC NOAA

TAF KFKL 271722Z 2718/2818 27006KT P6SM SCT050
FM280000 VRB03KT P6SM SCT070
FM280600 00000KT P6SM VCSH SCT050
FM281500 31005KT P6SM BKN040

Example: see airport list